Time;durP1;ratioP1;P1;durP2;ratioP2;P2;SDS_P1;SDS_P2;PMS_P1;PMS_P2;Temp;Humidity;BMP_temperature;BMP_pressure;BME280_temperature;BME280_humidity;BME280_pressure;Samples;Min_cycle;Max_cycle;Signal;HPM_P1;HPM_P2
2022/10/02 00:00:33;;;;;;;4.28;0.95;;;;;;;11.87;100.00;97627.06;5019777;28;20099;-63
2022/10/02 00:03:05;;;;;;;5.57;1.30;;;;;;;11.88;100.00;97628.69;5020809;28;20077;-63
2022/10/02 00:05:47;;;;;;;4.63;1.73;;;;;;;11.89;100.00;97627.63;5025399;28;20037;-63
2022/10/02 00:08:19;;;;;;;5.38;1.23;;;;;;;11.94;100.00;97633.94;5025136;28;20048;-63
2022/10/02 00:11:02;;;;;;;6.35;1.77;;;;;;;11.87;100.00;97637.94;5025035;28;20128;-63
2022/10/02 00:13:43;;;;;;;6.07;1.27;;;;;;;11.78;100.00;97634.81;5025812;28;20212;-63
2022/10/02 00:16:41;;;;;;;8.68;1.65;;;;;;;11.59;100.00;97610.75;5025102;28;20513;-63
2022/10/02 00:19:10;;;;;;;9.15;1.65;;;;;;;11.31;100.00;97605.25;5025443;28;20509;-63
2022/10/02 00:21:58;;;;;;;8.40;1.77;;;;;;;11.22;100.00;97617.59;5025050;28;20054;-63
2022/10/02 00:24:38;;;;;;;23.45;3.08;;;;;;;11.34;100.00;97620.19;5011426;28;20148;-63
2022/10/02 00:27:14;;;;;;;8.55;1.60;;;;;;;11.31;100.00;97618.81;5024788;28;20048;-63
2022/10/02 00:29:50;;;;;;;8.77;1.55;;;;;;;11.36;100.00;97630.78;5024140;28;20096;-63
2022/10/02 00:32:47;;;;;;;7.70;1.70;;;;;;;11.50;100.00;97637.47;5024998;28;20765;-63
2022/10/02 00:35:30;;;;;;;5.50;1.25;;;;;;;11.60;100.00;97644.94;5025501;28;20128;-63
2022/10/02 00:38:38;;;;;;;6.60;2.50;;;;;;;11.34;100.00;97643.75;5025002;28;20143;-63
2022/10/02 00:41:23;;;;;;;6.93;1.20;;;;;;;11.29;100.00;97639.94;5026855;28;20132;-63
2022/10/02 00:44:46;;;;;;;7.20;1.55;;;;;;;11.43;100.00;97636.84;5024953;28;20054;-63
2022/10/02 00:47:31;;;;;;;5.97;1.63;;;;;;;11.39;100.00;97647.38;5025591;28;20107;-63
2022/10/02 00:50:23;;;;;;;6.80;1.40;;;;;;;11.35;100.00;97648.13;5026321;28;20045;-63
2022/10/02 00:53:20;;;;;;;11.10;2.03;;;;;;;11.30;100.00;97644.28;5028601;28;20065;-63
2022/10/02 00:55:47;;;;;;;4.32;1.20;;;;;;;11.34;100.00;97650.00;5029360;28;20044;-63
2022/10/02 00:58:21;;;;;;;6.13;1.50;;;;;;;11.35;100.00;97657.06;5028808;28;20040;-63
2022/10/02 01:00:58;;;;;;;7.72;1.65;;;;;;;11.37;100.00;97665.78;5027438;28;20052;-63
2022/10/02 01:03:39;;;;;;;4.97;1.48;;;;;;;11.50;100.00;97663.78;5020351;28;20049;-63
2022/10/02 01:06:08;;;;;;;4.63;1.00;;;;;;;11.55;100.00;97661.13;5029151;28;20523;-63
2022/10/02 01:08:35;;;;;;;9.35;2.00;;;;;;;11.52;100.00;97662.47;5028281;28;20757;-63
2022/10/02 01:11:04;;;;;;;5.03;1.67;;;;;;;11.63;100.00;97660.69;5023940;28;20041;-63
2022/10/02 01:13:32;;;;;;;7.18;1.63;;;;;;;11.69;100.00;97656.97;5018364;28;20512;-63
2022/10/02 01:15:59;;;;;;;6.18;2.20;;;;;;;11.71;100.00;97656.72;5028665;28;20512;-63
2022/10/02 01:18:29;;;;;;;5.07;1.52;;;;;;;11.78;100.00;97646.50;5027391;28;20041;-63
2022/10/02 01:21:03;;;;;;;6.22;1.63;;;;;;;11.86;100.00;97647.16;5031804;28;20037;-63
2022/10/02 01:23:58;;;;;;;4.68;1.20;;;;;;;11.91;100.00;97653.44;5018091;28;20139;-63
2022/10/02 01:26:25;;;;;;;9.00;1.50;;;;;;;11.88;100.00;97639.56;5024120;28;20108;-63
2022/10/02 01:28:52;;;;;;;8.70;2.08;;;;;;;11.93;100.00;97642.31;5027969;28;20572;-63
2022/10/02 01:31:18;;;;;;;6.95;1.50;;;;;;;11.93;100.00;97655.88;5027751;28;20067;-63
2022/10/02 01:33:48;;;;;;;9.27;1.65;;;;;;;11.94;100.00;97643.97;5028016;28;20038;-63
2022/10/02 01:36:15;;;;;;;11.95;2.05;;;;;;;11.96;100.00;97644.53;5028423;28;20041;-63
2022/10/02 01:38:43;;;;;;;8.52;1.65;;;;;;;12.00;100.00;97642.13;5026608;28;20057;-63
2022/10/02 01:41:10;;;;;;;6.95;2.03;;;;;;;11.97;100.00;97646.16;5028333;28;20045;-63
2022/10/02 01:43:41;;;;;;;5.47;1.33;;;;;;;12.01;100.00;97647.31;5026794;28;20041;-63
2022/10/02 01:46:31;;;;;;;11.50;2.40;;;;;;;11.96;100.00;97652.69;5028534;28;20125;-63
2022/10/02 01:49:19;;;;;;;7.38;1.45;;;;;;;12.01;100.00;97658.16;5028082;28;20421;-63
2022/10/02 01:52:04;;;;;;;6.93;1.67;;;;;;;11.94;100.00;97662.97;5027120;28;20129;-63
2022/10/02 01:54:50;;;;;;;5.78;1.65;;;;;;;11.84;100.00;97656.34;5027700;28;20049;-63
2022/10/02 01:57:35;;;;;;;4.85;1.50;;;;;;;11.72;100.00;97658.34;5027445;28;20037;-63
2022/10/02 02:00:09;;;;;;;7.57;1.63;;;;;;;11.69;100.00;97648.03;5028222;28;20566;-63
2022/10/02 02:03:07;;;;;;;8.68;1.50;;;;;;;11.51;100.00;97644.56;5023040;28;20570;-63
2022/10/02 02:06:13;;;;;;;4.82;1.30;;;;;;;11.38;100.00;97653.88;5027154;28;20504;-63
2022/10/02 02:08:58;;;;;;;6.32;1.35;;;;;;;11.42;100.00;97667.72;5028273;28;20124;-63
2022/10/02 02:11:28;;;;;;;9.15;1.38;;;;;;;11.53;100.00;97674.09;5025781;28;20077;-63
2022/10/02 02:14:17;;;;;;;6.40;1.60;;;;;;;11.64;100.00;97680.53;5027167;28;20052;-63
2022/10/02 02:16:48;;;;;;;10.63;1.67;;;;;;;11.61;100.00;97670.16;5027711;28;20120;-63
2022/10/02 02:19:36;;;;;;;9.18;1.50;;;;;;;11.55;100.00;97656.53;5022664;28;20045;-63
2022/10/02 02:22:10;;;;;;;10.35;1.98;;;;;;;11.39;100.00;97666.34;5022659;28;20121;-63
2022/10/02 02:24:51;;;;;;;9.30;1.88;;;;;;;11.40;100.00;97662.59;5027424;28;20116;-63
2022/10/02 02:27:23;;;;;;;10.02;2.15;;;;;;;11.56;100.00;97665.47;5021899;28;20576;-63
2022/10/02 02:29:54;;;;;;;7.00;1.80;;;;;;;11.65;100.00;97658.53;5027638;28;20041;-63
2022/10/02 02:32:25;;;;;;;8.07;1.67;;;;;;;11.77;100.00;97665.75;5026789;28;20638;-63
2022/10/02 02:35:03;;;;;;;;;;;;;;;11.74;100.00;97656.22;5026810;28;20046;-63
2022/10/02 02:37:33;;;;;;;9.45;2.20;;;;;;;11.93;100.00;97655.88;5024761;28;20047;-63
2022/10/02 02:40:11;;;;;;;8.73;1.63;;;;;;;11.94;100.00;97655.63;5027404;28;20139;-63
2022/10/02 02:42:42;;;;;;;5.43;2.08;;;;;;;11.86;100.00;97661.50;5020258;28;20052;-63
2022/10/02 02:45:18;;;;;;;5.43;1.48;;;;;;;11.81;100.00;97656.03;5027180;28;20052;-63
2022/10/02 02:47:54;;;;;;;10.45;2.30;;;;;;;11.52;100.00;97658.91;5026607;28;20037;-63
2022/10/02 02:50:26;;;;;;;7.90;1.70;;;;;;;11.45;100.00;97662.66;5027218;28;20136;-63
2022/10/02 02:53:08;;;;;;;4.22;1.15;;;;;;;11.44;100.00;97676.44;5026051;28;20116;-63
2022/10/02 02:55:44;;;;;;;5.75;1.25;;;;;;;11.48;100.00;97676.75;5026720;28;20104;-63
2022/10/02 02:58:22;;;;;;;12.43;2.33;;;;;;;11.28;100.00;97676.22;5026851;28;20045;-63
2022/10/02 03:00:49;;;;;;;7.70;1.38;;;;;;;11.28;100.00;97670.81;5025417;28;20124;-63
2022/10/02 03:03:15;;;;;;;9.57;2.42;;;;;;;11.15;100.00;97668.44;5022181;28;20078;-63
2022/10/02 03:06:16;;;;;;;9.40;1.77;;;;;;;11.24;100.00;97679.69;5026680;28;20140;-63
2022/10/02 03:08:44;;;;;;;6.93;1.95;;;;;;;11.15;100.00;97680.13;5025172;28;20042;-63
2022/10/02 03:11:29;;;;;;;9.43;2.08;;;;;;;11.20;100.00;97676.63;5025258;28;20132;-63
2022/10/02 03:14:12;;;;;;;8.57;1.98;;;;;;;11.14;100.00;97678.47;5026461;28;20504;-63
2022/10/02 03:16:46;;;;;;;8.10;2.08;;;;;;;11.23;100.00;97675.31;5026475;28;20511;-63
2022/10/02 03:19:30;;;;;;;9.25;2.85;;;;;;;11.26;100.00;97675.66;5021989;28;20038;-63
2022/10/02 03:22:06;;;;;;;14.57;3.28;;;;;;;11.31;100.00;97675.72;5026474;28;20059;-63
2022/10/02 03:24:48;;;;;;;11.30;1.95;;;;;;;11.49;100.00;97672.97;5025558;28;20037;-63
2022/10/02 03:27:30;;;;;;;10.50;1.77;;;;;;;11.38;100.00;97672.84;5025913;28;20140;-63
2022/10/02 03:30:11;;;;;;;9.68;2.33;;;;;;;11.37;100.00;97660.38;5009880;28;20076;-63
2022/10/02 03:32:40;;;;;;;6.22;2.13;;;;;;;11.49;100.00;97664.84;5024413;28;20128;-63
2022/10/02 03:35:12;;;;;;;8.55;2.20;;;;;;;11.42;100.00;97671.28;5026090;28;20044;-63
2022/10/02 03:37:46;;;;;;;8.98;2.30;;;;;;;11.42;100.00;97670.44;5025765;28;20407;-63
2022/10/02 03:40:12;;;;;;;7.60;2.28;;;;;;;11.42;100.00;97660.44;5025571;28;20128;-63
2022/10/02 03:42:39;;;;;;;8.90;1.67;;;;;;;11.51;100.00;97663.53;5025947;28;20124;-63
2022/10/02 03:45:06;;;;;;;9.05;1.95;;;;;;;11.51;100.00;97666.25;5026136;28;20080;-63
2022/10/02 03:47:33;;;;;;;9.98;2.03;;;;;;;11.65;100.00;97666.69;5025246;28;20037;-63
2022/10/02 03:49:59;;;;;;;7.15;1.60;;;;;;;11.77;100.00;97668.47;5026403;28;20601;-63
2022/10/02 03:52:30;;;;;;;6.07;1.65;;;;;;;11.76;100.00;97664.91;5025336;28;20177;-63
2022/10/02 03:55:20;;;;;;;8.63;1.70;;;;;;;11.57;100.00;97676.09;5025749;28;20117;-63
2022/10/02 03:57:46;;;;;;;4.53;1.30;;;;;;;11.51;100.00;97674.38;5024025;28;20044;-63
2022/10/02 04:00:21;;;;;;;4.50;1.35;;;;;;;11.59;100.00;97686.69;5025694;28;20083;-63
2022/10/02 04:02:59;;;;;;;7.35;1.48;;;;;;;11.61;100.00;97673.69;5025575;28;20073;-63
2022/10/02 04:05:31;;;;;;;8.10;1.77;;;;;;;11.50;100.00;97677.34;5025637;28;20053;-63
2022/10/02 04:08:21;;;;;;;7.72;1.73;;;;;;;11.26;100.00;97675.66;5025636;28;20038;-63
2022/10/02 04:11:24;;;;;;;5.07;1.90;;;;;;;11.28;100.00;97670.00;5024966;28;20605;-63
2022/10/02 04:14:01;;;;;;;4.88;1.50;;;;;;;11.32;100.00;97674.66;5017176;28;20055;-63
2022/10/02 04:16:47;;;;;;;8.30;1.80;;;;;;;11.43;100.00;97667.47;5024780;28;20580;-63
2022/10/02 04:19:22;;;;;;;9.02;1.80;;;;;;;11.49;100.00;97665.66;5025687;28;20033;-63
2022/10/02 04:22:01;;;;;;;8.63;1.98;;;;;;;11.45;100.00;97676.19;5025248;28;20124;-63
2022/10/02 04:24:30;;;;;;;9.18;1.80;;;;;;;11.54;100.00;97671.16;5023383;28;20045;-63
2022/10/02 04:27:05;;;;;;;5.63;1.50;;;;;;;11.67;100.00;97674.56;5021135;28;20045;-63
2022/10/02 04:29:37;;;;;;;5.15;1.42;;;;;;;11.75;100.00;97671.41;5020640;28;20045;-63
2022/10/02 04:32:12;;;;;;;10.25;1.60;;;;;;;11.74;100.00;97677.09;5021492;28;20463;-63
2022/10/02 04:34:39;;;;;;;12.50;1.50;;;;;;;11.63;100.00;97676.16;5022624;28;20049;-63
2022/10/02 04:37:37;;;;;;;7.13;1.42;;;;;;;11.63;100.00;97676.97;5025116;28;20120;-63
2022/10/02 04:40:06;;;;;;;5.65;1.27;;;;;;;11.62;100.00;97667.19;5024381;28;20037;-63
2022/10/02 04:43:00;;;;;;;8.82;1.63;;;;;;;11.60;100.00;97673.97;5022819;28;20120;-63
2022/10/02 04:46:06;;;;;;;9.40;1.50;;;;;;;11.61;100.00;97670.16;5025392;28;20173;-63
2022/10/02 04:48:38;;;;;;;11.35;1.98;;;;;;;11.58;100.00;97669.56;4994688;28;20649;-63
2022/10/02 04:51:50;;;;;;;3.38;1.20;;;;;;;11.68;100.00;97668.06;5024073;28;20038;-63
2022/10/02 04:54:32;;;;;;;7.25;1.52;;;;;;;11.68;100.00;97670.78;5024172;28;20078;-63
2022/10/02 04:57:33;;;;;;;6.53;1.30;;;;;;;11.59;100.00;97656.84;5023626;28;20056;-63
2022/10/02 05:00:07;;;;;;;5.85;1.23;;;;;;;11.58;100.00;97652.50;5025217;28;20039;-63
2022/10/02 05:03:13;;;;;;;6.88;1.20;;;;;;;11.48;100.00;97653.19;5022299;28;20047;-63
2022/10/02 05:05:59;;;;;;;7.20;1.42;;;;;;;11.37;100.00;97652.22;5024871;28;20128;-63
2022/10/02 05:08:41;;;;;;;8.18;1.90;;;;;;;11.42;100.00;97652.28;5022853;28;20396;-64
2022/10/02 05:11:15;;;;;;;10.30;1.65;;;;;;;11.45;100.00;97651.81;5022852;28;20045;-63
2022/10/02 05:14:11;;;;;;;4.20;1.30;;;;;;;11.41;100.00;97647.94;5023436;28;20041;-63
2022/10/02 05:17:00;;;;;;;4.95;1.20;;;;;;;11.33;100.00;97640.25;5002826;28;20064;-63
2022/10/02 05:19:52;;;;;;;4.40;1.02;;;;;;;11.27;100.00;97636.63;5022284;28;20404;-63
2022/10/02 05:22:46;;;;;;;9.55;1.17;;;;;;;11.18;100.00;97644.38;5021252;28;20124;-63
2022/10/02 05:25:36;;;;;;;7.05;2.20;;;;;;;11.01;100.00;97652.53;5019709;28;20052;-63
2022/10/02 05:28:28;;;;;;;6.68;1.35;;;;;;;10.97;100.00;97651.38;5020965;28;20127;-63
2022/10/02 05:31:18;;;;;;;;;;;;;;;10.88;100.00;97658.28;5020014;28;20090;-64
2022/10/02 05:34:06;;;;;;;3.88;1.05;;;;;;;10.84;100.00;97671.50;5019929;28;20497;-63
2022/10/02 05:36:54;;;;;;;7.70;1.60;;;;;;;10.70;100.00;97675.59;5018016;28;20416;-63
2022/10/02 05:39:33;;;;;;;5.75;1.40;;;;;;;10.71;100.00;97677.22;5017122;28;20048;-63
2022/10/02 05:42:07;;;;;;;8.07;1.60;;;;;;;10.68;100.00;97681.25;5025368;28;20049;-63
2022/10/02 05:44:42;;;;;;;9.60;1.92;;;;;;;10.74;100.00;97684.88;5017114;28;20123;-63
2022/10/02 05:47:08;;;;;;;9.30;1.83;;;;;;;10.74;100.00;97684.88;5026227;28;20049;-64
2022/10/02 05:49:40;;;;;;;7.63;2.13;;;;;;;10.78;100.00;97688.75;5025195;28;20056;-63
2022/10/02 05:52:18;;;;;;;13.13;2.40;;;;;;;10.70;100.00;97686.44;5025251;28;20045;-64
2022/10/02 05:55:21;;;;;;;7.30;2.03;;;;;;;10.72;100.00;97692.44;5017745;28;20125;-63
2022/10/02 05:57:54;;;;;;;6.72;1.83;;;;;;;10.76;100.00;97696.31;5020242;28;20042;-64
2022/10/02 06:00:30;;;;;;;6.47;1.50;;;;;;;10.73;100.00;97697.59;5024606;28;20049;-64
2022/10/02 06:02:56;;;;;;;9.48;1.70;;;;;;;10.72;100.00;97709.50;5025267;28;20038;-64
2022/10/02 06:05:29;;;;;;;6.47;1.45;;;;;;;10.73;100.00;97713.03;5024637;28;20049;-64
2022/10/02 06:08:00;;;;;;;10.20;2.20;;;;;;;10.75;100.00;97706.31;5025687;28;20055;-63
2022/10/02 06:10:40;;;;;;;7.60;1.95;;;;;;;10.83;100.00;97696.94;5025522;28;20908;-63
2022/10/02 06:13:14;;;;;;;5.72;2.08;;;;;;;10.86;100.00;97685.63;5024560;28;20516;-63
2022/10/02 06:15:54;;;;;;;6.20;1.70;;;;;;;10.86;100.00;97701.03;5023867;28;20112;-64
2022/10/02 06:18:28;;;;;;;7.35;1.77;;;;;;;10.92;100.00;97686.53;5024684;28;20052;-64
2022/10/02 06:21:01;;;;;;;7.68;1.67;;;;;;;10.98;100.00;97690.94;5021887;28;20052;-64
2022/10/02 06:23:39;;;;;;;10.88;2.85;;;;;;;11.08;100.00;97690.28;5023796;28;20116;-64
2022/10/02 06:26:14;;;;;;;7.13;1.40;;;;;;;11.11;100.00;97691.69;5012886;28;20049;-64
2022/10/02 06:28:47;;;;;;;9.98;2.22;;;;;;;11.13;100.00;97682.25;5025130;28;20479;-64
2022/10/02 06:31:29;;;;;;;12.77;2.30;;;;;;;11.17;100.00;97671.75;5013803;28;20049;-64
2022/10/02 06:33:56;;;;;;;4.63;1.33;;;;;;;11.17;100.00;97659.00;5024871;28;20472;-64
2022/10/02 06:36:45;;;;;;;6.40;1.80;;;;;;;11.20;100.00;97657.66;5025518;28;20048;-64
2022/10/02 06:39:18;;;;;;;5.07;1.80;;;;;;;11.22;100.00;97658.25;5025334;28;20120;-64
2022/10/02 06:42:06;;;;;;;9.43;2.75;;;;;;;11.29;100.00;97668.91;5023476;28;20045;-64
2022/10/02 06:44:57;;;;;;;7.20;2.78;;;;;;;11.36;100.00;97671.44;5010576;28;20487;-64
2022/10/02 06:47:34;;;;;;;9.80;3.70;;;;;;;11.45;100.00;97667.25;5025275;28;20128;-64
2022/10/02 06:50:30;;;;;;;6.75;3.15;;;;;;;11.49;100.00;97657.53;5024668;28;20048;-64
2022/10/02 06:53:02;;;;;;;10.30;3.90;;;;;;;11.50;100.00;97658.38;5023822;28;20049;-64
2022/10/02 06:55:44;;;;;;;7.95;4.03;;;;;;;11.50;100.00;97669.22;5025239;28;20049;-64
2022/10/02 06:58:14;;;;;;;9.50;4.13;;;;;;;11.44;100.00;97671.84;5024127;28;20033;-64
2022/10/02 07:01:05;;;;;;;6.20;3.20;;;;;;;11.49;100.00;97657.53;5025553;28;20045;-64
2022/10/02 07:03:54;;;;;;;8.50;3.33;;;;;;;11.46;100.00;97647.19;5006969;28;20064;-64
2022/10/02 07:06:52;;;;;;;7.70;3.25;;;;;;;11.43;100.00;97639.56;5015551;28;20148;-64
2022/10/02 07:09:38;;;;;;;9.45;4.13;;;;;;;11.44;100.00;97633.91;5025858;28;20038;-64
2022/10/02 07:12:14;;;;;;;12.75;4.47;;;;;;;11.47;100.00;97627.16;5022448;28;20055;-64
2022/10/02 07:15:16;;;;;;;11.27;4.18;;;;;;;11.52;100.00;97634.50;5016027;28;20041;-64
2022/10/02 07:18:02;;;;;;;11.32;4.80;;;;;;;11.50;100.00;97634.75;5023680;28;20141;-64
2022/10/02 07:20:37;;;;;;;8.85;3.83;;;;;;;11.49;100.00;97632.28;5026103;28;20037;-64
2022/10/02 07:23:26;;;;;;;9.85;3.78;;;;;;;11.43;100.00;97636.84;5026446;28;20460;-64
2022/10/02 07:26:27;;;;;;;8.88;2.78;;;;;;;11.42;100.00;97640.63;5025396;28;20580;-64
2022/10/02 07:29:12;;;;;;;8.55;2.38;;;;;;;11.42;100.00;97635.19;5022660;28;20401;-64
2022/10/02 07:31:41;;;;;;;5.72;2.50;;;;;;;11.39;100.00;97643.84;5014909;28;20046;-64
2022/10/02 07:34:26;;;;;;;8.15;2.60;;;;;;;11.39;100.00;97635.72;5023955;28;20080;-64
2022/10/02 07:37:34;;;;;;;8.82;2.60;;;;;;;11.36;100.00;97636.22;5024304;28;20509;-64
2022/10/02 07:40:28;;;;;;;7.20;2.20;;;;;;;11.39;100.00;97633.00;5024597;28;20496;-64
2022/10/02 07:43:23;;;;;;;7.32;3.05;;;;;;;11.38;100.00;97634.06;5025774;28;20049;-64
2022/10/02 07:46:08;;;;;;;9.68;2.80;;;;;;;11.42;100.00;97637.91;5022589;28;20485;-64
2022/10/02 07:48:53;;;;;;;8.38;3.17;;;;;;;11.44;100.00;97631.19;5023994;28;20042;-64
2022/10/02 07:51:46;;;;;;;7.35;2.88;;;;;;;11.51;100.00;97633.72;5025977;28;20129;-65
2022/10/02 07:54:30;;;;;;;11.35;2.78;;;;;;;11.59;100.00;97627.03;5027831;28;20390;-64
2022/10/02 07:57:17;;;;;;;9.93;3.42;;;;;;;11.65;100.00;97619.78;5027406;28;20045;-64
2022/10/02 07:59:47;;;;;;;11.38;4.63;;;;;;;11.66;100.00;97621.41;5023855;28;20056;-64
2022/10/02 08:02:27;;;;;;;8.65;3.65;;;;;;;11.65;100.00;97622.47;5023828;28;20135;-64
2022/10/02 08:05:00;;;;;;;10.70;3.72;;;;;;;11.74;100.00;97615.53;5023532;28;20079;-64
2022/10/02 08:07:28;;;;;;;10.57;3.10;;;;;;;11.90;100.00;97619.22;5024014;28;20127;-64
2022/10/02 08:09:59;;;;;;;15.45;7.88;;;;;;;11.92;100.00;97603.53;5023388;28;20489;-64
2022/10/02 08:12:59;;;;;;;20.85;10.68;;;;;;;11.92;100.00;97610.84;5023948;28;20081;-64
2022/10/02 08:15:32;;;;;;;13.27;5.28;;;;;;;12.01;100.00;97603.06;5024163;28;20132;-64
2022/10/02 08:18:07;;;;;;;11.65;4.75;;;;;;;12.14;100.00;97604.59;5022278;28;20051;-64
2022/10/02 08:20:53;;;;;;;7.18;3.67;;;;;;;12.13;100.00;97595.63;5023504;28;20584;-64
2022/10/02 08:23:42;;;;;;;7.68;2.33;;;;;;;12.25;100.00;97587.31;5024049;28;20137;-64
2022/10/02 08:26:27;;;;;;;7.05;2.47;;;;;;;12.16;100.00;97597.81;5023646;28;20078;-64
2022/10/02 08:29:39;;;;;;;8.50;2.75;;;;;;;12.16;100.00;97588.88;5023415;28;20046;-64
2022/10/02 08:32:10;;;;;;;8.48;3.45;;;;;;;12.23;100.00;97597.59;5023554;28;20043;-64
2022/10/02 08:34:38;;;;;;;;;;;;;;;12.30;100.00;97592.78;5023802;28;20124;-64
2022/10/02 08:37:04;;;;;;;10.43;4.05;;;;;;;12.32;100.00;97601.47;5023381;28;20404;-65
2022/10/02 08:40:08;;;;;;;7.55;2.90;;;;;;;12.43;100.00;97585.28;5023348;28;20046;-64
2022/10/02 08:42:47;;;;;;;7.57;3.67;;;;;;;12.44;100.00;97584.22;5023630;28;20046;-64
2022/10/02 08:45:51;;;;;;;12.02;5.32;;;;;;;12.58;100.00;97580.00;5023428;28;20049;-64
2022/10/02 08:48:39;;;;;;;12.68;5.82;;;;;;;12.60;100.00;97574.28;5023607;28;20065;-64
2022/10/02 08:51:36;;;;;;;6.50;3.08;;;;;;;12.62;100.00;97572.13;5023034;28;20056;-65
2022/10/02 08:54:27;;;;;;;8.82;3.28;;;;;;;12.77;100.00;97570.59;5019368;28;20516;-64
2022/10/02 08:57:12;;;;;;;11.87;3.87;;;;;;;12.95;100.00;97566.66;5023336;28;20137;-65
2022/10/02 09:00:13;;;;;;;8.32;3.22;;;;;;;13.04;100.00;97559.63;5023754;28;20989;-64
2022/10/02 09:03:18;;;;;;;11.20;3.28;;;;;;;13.18;100.00;97556.44;5025461;28;20045;-64
2022/10/02 09:06:27;;;;;;;10.13;2.90;;;;;;;13.31;100.00;97553.25;5027056;28;20080;-64
2022/10/02 09:08:59;;;;;;;7.28;2.97;;;;;;;13.25;100.00;97554.28;5021476;28;20051;-64
2022/10/02 09:11:45;;;;;;;8.65;1.95;;;;;;;13.35;100.00;97558.97;5026859;28;20854;-65
2022/10/02 09:14:32;;;;;;;7.80;2.13;;;;;;;13.45;100.00;97556.28;5027168;28;20140;-64
2022/10/02 09:17:39;;;;;;;9.68;2.00;;;;;;;13.48;100.00;97563.13;5027072;28;20049;-63
2022/10/02 09:20:25;;;;;;;6.82;1.98;;;;;;;13.75;100.00;97549.31;5014455;28;20582;-63
2022/10/02 09:23:07;;;;;;;7.18;2.33;;;;;;;13.71;100.00;97561.84;5026368;28;20132;-63
2022/10/02 09:25:39;;;;;;;;;;;;;;;13.81;100.00;97554.81;5026808;28;20076;-63
2022/10/02 09:28:44;;;;;;;6.55;2.42;;;;;;;13.87;100.00;97548.28;5025961;28;20016;-63
2022/10/02 09:31:32;;;;;;;6.18;1.77;;;;;;;13.98;100.00;97557.28;5026040;28;20494;-63
2022/10/02 09:34:46;;;;;;;8.55;2.10;;;;;;;14.08;100.00;97560.00;5026761;28;20049;-63
2022/10/02 09:37:58;;;;;;;7.85;2.67;;;;;;;14.11;100.00;97545.06;5025656;28;20053;-63
2022/10/02 09:40:28;;;;;;;;;;;;;;;14.18;100.00;97557.31;5025572;28;20148;-63
2022/10/02 09:43:22;;;;;;;8.63;3.00;;;;;;;14.01;100.00;97556.75;5026619;28;19931;-63
2022/10/02 09:46:01;;;;;;;8.20;2.42;;;;;;;14.05;100.00;97579.63;5024510;28;20041;-63
2022/10/02 09:48:49;;;;;;;6.35;2.30;;;;;;;13.94;100.00;97576.06;5026843;28;20059;-63
2022/10/02 09:51:28;;;;;;;2.33;1.15;;;;;;;13.72;100.00;97579.00;5025158;28;20129;-63
2022/10/02 09:54:25;;;;;;;3.95;1.50;;;;;;;13.60;100.00;97577.31;5025545;28;20136;-64
2022/10/02 09:57:30;;;;;;;2.00;1.10;;;;;;;13.07;100.00;97578.13;5026076;28;20046;-63
2022/10/02 10:00:06;;;;;;;1.83;1.10;;;;;;;13.00;100.00;97596.56;5025939;28;20501;-63
2022/10/02 10:03:15;;;;;;;2.10;1.13;;;;;;;12.86;100.00;97599.75;5021530;28;20515;-63
2022/10/02 10:05:53;;;;;;;2.42;1.08;;;;;;;12.83;100.00;97592.09;5024393;28;20049;-63
2022/10/02 10:08:38;;;;;;;2.53;1.20;;;;;;;12.83;100.00;97583.97;5026281;28;20124;-63
2022/10/02 10:11:17;;;;;;;3.40;1.30;;;;;;;13.00;100.00;97582.97;5025346;28;20049;-63
2022/10/02 10:14:11;;;;;;;3.35;1.30;;;;;;;13.26;100.00;97574.97;5024873;28;20053;-63
2022/10/02 10:17:04;;;;;;;2.85;1.40;;;;;;;13.34;100.00;97570.94;5025466;28;20128;-63
2022/10/02 10:20:11;;;;;;;3.08;1.60;;;;;;;13.43;100.00;97568.50;5019323;28;20048;-63
2022/10/02 10:22:50;;;;;;;1.65;1.10;;;;;;;13.43;100.00;97568.50;5025349;28;20045;-63
2022/10/02 10:25:27;;;;;;;1.10;0.88;;;;;;;13.36;100.00;97563.31;5025376;28;20124;-63
2022/10/02 10:28:21;;;;;;;1.45;0.80;;;;;;;13.37;100.00;97564.94;5025275;28;20527;-63
2022/10/02 10:31:01;;;;;;;1.40;0.90;;;;;;;13.71;100.00;97569.19;5025591;28;20038;-62
2022/10/02 10:33:54;;;;;;;1.58;1.00;;;;;;;13.90;100.00;97580.41;5025130;28;20041;-63
2022/10/02 10:40:03;;;;;;;3.58;0.95;;;;;;;13.58;100.00;97582.22;5022635;28;20037;-62
2022/10/02 10:42:49;;;;;;;2.22;0.95;;;;;;;13.15;100.00;97587.69;5024773;28;20115;-62
2022/10/02 10:46:01;;;;;;;1.20;0.70;;;;;;;13.17;100.00;97580.09;5024939;28;20045;-63
2022/10/02 10:48:58;;;;;;;1.83;0.90;;;;;;;13.02;100.00;97594.41;5025212;28;20056;-62
2022/10/02 10:51:39;;;;;;;1.85;0.68;;;;;;;12.93;100.00;97598.72;5025685;28;20496;-63
2022/10/02 10:54:21;;;;;;;1.35;0.80;;;;;;;12.86;100.00;97593.47;5024752;28;20057;-64
2022/10/02 10:56:55;;;;;;;1.50;0.60;;;;;;;12.85;100.00;97600.00;5024926;28;20052;-64
2022/10/02 10:59:47;;;;;;;2.88;1.38;;;;;;;12.89;100.00;97603.84;5024809;28;20048;-64
2022/10/02 11:02:58;;;;;;;0.88;0.57;;;;;;;12.96;100.00;97609.03;5024181;28;20046;-64
2022/10/02 11:05:27;;;;;;;3.20;0.95;;;;;;;13.10;100.00;97620.28;5021701;28;20136;-64
2022/10/02 11:08:11;;;;;;;1.55;0.90;;;;;;;13.21;100.00;97621.16;5024778;28;20057;-64
2022/10/02 11:10:59;;;;;;;2.33;1.27;;;;;;;13.21;100.00;97618.44;5023217;28;20030;-64
2022/10/02 11:14:11;;;;;;;1.52;0.82;;;;;;;12.98;100.00;97612.34;5024119;28;20128;-64
2022/10/02 11:16:57;;;;;;;2.10;0.90;;;;;;;13.14;100.00;97611.34;5023798;28;20052;-64
2022/10/02 11:19:25;;;;;;;2.25;1.48;;;;;;;13.13;100.00;97614.31;5016188;28;20572;-64
2022/10/02 11:22:30;;;;;;;1.15;0.82;;;;;;;13.00;100.00;97611.00;5024490;28;20041;-65
2022/10/02 11:25:18;;;;;;;1.48;1.08;;;;;;;12.83;100.00;97599.47;5019931;28;20128;-64
2022/10/02 11:28:20;;;;;;;1.08;0.63;;;;;;;12.74;100.00;97610.81;5024817;28;20041;-64
2022/10/02 11:31:16;;;;;;;0.52;0.47;;;;;;;12.80;100.00;97606.25;5023623;28;20123;-65
2022/10/02 11:34:11;;;;;;;0.68;0.50;;;;;;;12.65;100.00;97604.22;5023926;28;20448;-64
2022/10/02 11:36:56;;;;;;;0.50;0.40;;;;;;;12.54;100.00;97603.31;5024443;28;20034;-65
2022/10/02 11:39:36;;;;;;;0.95;0.60;;;;;;;12.54;100.00;97600.59;5024151;28;20055;-64
2022/10/02 11:42:37;;;;;;;1.50;1.00;;;;;;;12.64;100.00;97613.44;5023393;28;20048;-65
2022/10/02 11:45:22;;;;;;;0.30;0.30;;;;;;;12.70;100.00;97614.28;5016753;28;20502;-64
2022/10/02 11:48:07;;;;;;;0.85;0.40;;;;;;;12.63;100.00;97605.56;5023627;28;20156;-64
2022/10/02 11:51:09;;;;;;;0.68;0.20;;;;;;;12.67;100.00;97615.63;5024041;28;20040;-64
2022/10/02 11:54:22;;;;;;;2.45;0.77;;;;;;;12.63;100.00;97605.56;5013861;28;20072;-63
2022/10/02 11:57:18;;;;;;;2.83;1.10;;;;;;;12.77;100.00;97605.91;5019744;28;20067;-64
2022/10/02 12:00:07;;;;;;;0.45;0.40;;;;;;;12.59;100.00;97581.63;5023708;28;20299;-64
2022/10/02 12:03:08;;;;;;;1.15;0.50;;;;;;;12.62;100.00;97602.03;5022393;28;20131;-63
2022/10/02 12:05:54;;;;;;;0.20;0.10;;;;;;;12.80;100.00;97594.53;5022912;28;20654;-63
2022/10/02 12:08:30;;;;;;;1.25;0.30;;;;;;;12.72;100.00;97583.06;5019225;28;20108;-64
2022/10/02 12:11:01;;;;;;;0.10;0.10;;;;;;;12.75;100.00;97596.13;5022383;28;20049;-64
2022/10/02 12:13:46;;;;;;;0.63;0.40;;;;;;;12.79;100.00;97599.13;5024333;28;20165;-63
2022/10/02 12:16:27;;;;;;;0.20;0.10;;;;;;;12.46;100.00;97592.94;5016983;28;20073;-63
2022/10/02 12:19:12;;;;;;;;;;;;;;;12.55;100.00;97594.09;5024024;28;20411;-63
2022/10/02 12:28:22;;;;;;;1.90;0.65;;;;;;;12.45;100.00;97613.84;5021833;28;20053;-63
2022/10/02 12:31:00;;;;;;;0.20;0.20;;;;;;;12.48;100.00;97616.03;5022986;28;20049;-64
2022/10/02 12:33:40;;;;;;;1.15;0.40;;;;;;;12.51;100.00;97616.59;5023365;28;20431;-64
2022/10/02 12:36:15;;;;;;;0.57;0.38;;;;;;;12.50;100.00;97615.78;5025218;28;20072;-64
2022/10/02 12:39:07;;;;;;;1.73;0.30;;;;;;;12.50;100.00;97623.94;5027673;28;20312;-65
2022/10/02 12:41:58;;;;;;;0.60;0.40;;;;;;;12.57;100.00;97618.28;5027160;28;20052;-65
2022/10/02 12:44:31;;;;;;;0.70;0.50;;;;;;;12.46;100.00;97617.38;5027730;28;20149;-64
2022/10/02 12:47:20;;;;;;;0.90;0.50;;;;;;;12.39;100.00;97630.34;5028839;28;20046;-65